sensor_id;sensor_type;location;lat;lon;timestamp;P1;durP1;ratioP1;P2;durP2;ratioP2
31782;SDS011;18351;47.560;9.708;2023-02-01T00:01:31;22.65;;;14.32;;
31782;SDS011;18351;47.560;9.708;2023-02-01T00:03:56;26.83;;;15.77;;
31782;SDS011;18351;47.560;9.708;2023-02-01T00:06:22;22.90;;;14.73;;
31782;SDS011;18351;47.560;9.708;2023-02-01T00:08:47;24.13;;;13.93;;
31782;SDS011;18351;47.560;9.708;2023-02-01T00:11:14;23.33;;;15.15;;
31782;SDS011;18351;47.560;9.708;2023-02-01T00:13:40;27.23;;;15.10;;
31782;SDS011;18351;47.560;9.708;2023-02-01T00:16:07;25.75;;;15.18;;
31782;SDS011;18351;47.560;9.708;2023-02-01T00:18:35;24.25;;;15.18;;
31782;SDS011;18351;47.560;9.708;2023-02-01T00:21:01;25.13;;;14.13;;
31782;SDS011;18351;47.560;9.708;2023-02-01T00:23:27;23.08;;;15.13;;
31782;SDS011;18351;47.560;9.708;2023-02-01T00:25:52;23.85;;;14.77;;
31782;SDS011;18351;47.560;9.708;2023-02-01T00:28:18;25.70;;;15.32;;
31782;SDS011;18351;47.560;9.708;2023-02-01T00:30:44;26.55;;;14.80;;
31782;SDS011;18351;47.560;9.708;2023-02-01T00:33:09;22.08;;;14.43;;
31782;SDS011;18351;47.560;9.708;2023-02-01T00:35:35;21.52;;;13.38;;
31782;SDS011;18351;47.560;9.708;2023-02-01T00:38:01;26.98;;;15.57;;
31782;SDS011;18351;47.560;9.708;2023-02-01T00:40:27;24.50;;;15.77;;
31782;SDS011;18351;47.560;9.708;2023-02-01T00:42:52;26.85;;;15.15;;
31782;SDS011;18351;47.560;9.708;2023-02-01T00:45:19;25.95;;;15.88;;
31782;SDS011;18351;47.560;9.708;2023-02-01T00:47:44;25.75;;;16.13;;
31782;SDS011;18351;47.560;9.708;2023-02-01T00:50:10;22.00;;;13.82;;
31782;SDS011;18351;47.560;9.708;2023-02-01T00:52:35;23.48;;;14.30;;
31782;SDS011;18351;47.560;9.708;2023-02-01T00:55:01;23.42;;;14.60;;
31782;SDS011;18351;47.560;9.708;2023-02-01T00:57:27;25.40;;;14.90;;
31782;SDS011;18351;47.560;9.708;2023-02-01T00:59:52;25.10;;;15.10;;
31782;SDS011;18351;47.560;9.708;2023-02-01T01:02:18;22.80;;;13.68;;
31782;SDS011;18351;47.560;9.708;2023-02-01T01:04:43;24.52;;;15.30;;
31782;SDS011;18351;47.560;9.708;2023-02-01T01:07:09;28.17;;;15.77;;
31782;SDS011;18351;47.560;9.708;2023-02-01T01:09:35;24.65;;;14.63;;
31782;SDS011;18351;47.560;9.708;2023-02-01T01:12:00;24.60;;;15.40;;
31782;SDS011;18351;47.560;9.708;2023-02-01T01:14:27;29.52;;;15.43;;
31782;SDS011;18351;47.560;9.708;2023-02-01T01:16:54;23.30;;;14.77;;
31782;SDS011;18351;47.560;9.708;2023-02-01T01:19:20;22.95;;;14.30;;
31782;SDS011;18351;47.560;9.708;2023-02-01T01:21:45;22.85;;;14.18;;
31782;SDS011;18351;47.560;9.708;2023-02-01T01:24:11;22.25;;;14.48;;
31782;SDS011;18351;47.560;9.708;2023-02-01T01:26:36;25.13;;;14.45;;
31782;SDS011;18351;47.560;9.708;2023-02-01T01:29:02;26.45;;;14.75;;
31782;SDS011;18351;47.560;9.708;2023-02-01T01:31:28;23.92;;;15.43;;
31782;SDS011;18351;47.560;9.708;2023-02-01T01:33:55;26.13;;;14.70;;
31782;SDS011;18351;47.560;9.708;2023-02-01T01:36:23;30.40;;;15.30;;
31782;SDS011;18351;47.560;9.708;2023-02-01T01:38:49;23.85;;;15.15;;
31782;SDS011;18351;47.560;9.708;2023-02-01T01:41:17;23.83;;;14.55;;
31782;SDS011;18351;47.560;9.708;2023-02-01T01:43:49;25.95;;;14.98;;
31782;SDS011;18351;47.560;9.708;2023-02-01T01:46:22;25.23;;;15.75;;
31782;SDS011;18351;47.560;9.708;2023-02-01T01:48:57;21.13;;;13.70;;
31782;SDS011;18351;47.560;9.708;2023-02-01T01:51:30;24.50;;;15.32;;
31782;SDS011;18351;47.560;9.708;2023-02-01T01:54:04;22.50;;;14.18;;
31782;SDS011;18351;47.560;9.708;2023-02-01T01:56:36;23.75;;;14.82;;
31782;SDS011;18351;47.560;9.708;2023-02-01T01:59:02;22.45;;;14.68;;
31782;SDS011;18351;47.560;9.708;2023-02-01T02:01:29;24.33;;;14.25;;
31782;SDS011;18351;47.560;9.708;2023-02-01T02:03:55;24.63;;;15.38;;
31782;SDS011;18351;47.560;9.708;2023-02-01T02:08:59;29.80;;;16.67;;
31782;SDS011;18351;47.560;9.708;2023-02-01T02:11:25;23.98;;;15.48;;
31782;SDS011;18351;47.560;9.708;2023-02-01T02:13:51;24.15;;;15.55;;
31782;SDS011;18351;47.560;9.708;2023-02-01T02:21:49;21.90;;;14.80;;
31782;SDS011;18351;47.560;9.708;2023-02-01T02:35:32;29.42;;;16.65;;
31782;SDS011;18351;47.560;9.708;2023-02-01T02:41:10;28.80;;;17.38;;
31782;SDS011;18351;47.560;9.708;2023-02-01T02:44:07;28.25;;;17.05;;
31782;SDS011;18351;47.560;9.708;2023-02-01T02:49:56;26.92;;;15.77;;
31782;SDS011;18351;47.560;9.708;2023-02-01T02:52:51;27.33;;;16.30;;
31782;SDS011;18351;47.560;9.708;2023-02-01T02:55:50;24.30;;;14.77;;
31782;SDS011;18351;47.560;9.708;2023-02-01T02:58:16;24.50;;;15.93;;
31782;SDS011;18351;47.560;9.708;2023-02-01T03:01:01;23.13;;;15.40;;
31782;SDS011;18351;47.560;9.708;2023-02-01T03:03:46;25.15;;;15.15;;
31782;SDS011;18351;47.560;9.708;2023-02-01T03:06:33;25.23;;;14.38;;
31782;SDS011;18351;47.560;9.708;2023-02-01T03:09:00;25.40;;;15.07;;
31782;SDS011;18351;47.560;9.708;2023-02-01T03:11:29;24.52;;;15.18;;
31782;SDS011;18351;47.560;9.708;2023-02-01T03:14:17;23.20;;;14.60;;
31782;SDS011;18351;47.560;9.708;2023-02-01T03:16:47;21.48;;;14.35;;
31782;SDS011;18351;47.560;9.708;2023-02-01T03:19:19;25.40;;;14.85;;
31782;SDS011;18351;47.560;9.708;2023-02-01T03:21:53;23.60;;;14.73;;
31782;SDS011;18351;47.560;9.708;2023-02-01T03:24:30;23.55;;;13.55;;
31782;SDS011;18351;47.560;9.708;2023-02-01T03:27:27;21.23;;;14.35;;
31782;SDS011;18351;47.560;9.708;2023-02-01T03:32:33;24.42;;;14.20;;
31782;SDS011;18351;47.560;9.708;2023-02-01T03:35:21;23.85;;;13.85;;
31782;SDS011;18351;47.560;9.708;2023-02-01T03:38:01;18.20;;;12.60;;
31782;SDS011;18351;47.560;9.708;2023-02-01T03:40:37;18.90;;;13.07;;
31782;SDS011;18351;47.560;9.708;2023-02-01T03:43:04;19.60;;;12.23;;
31782;SDS011;18351;47.560;9.708;2023-02-01T03:45:39;17.25;;;12.25;;
31782;SDS011;18351;47.560;9.708;2023-02-01T03:48:09;24.80;;;13.25;;
31782;SDS011;18351;47.560;9.708;2023-02-01T03:50:38;17.63;;;12.18;;
31782;SDS011;18351;47.560;9.708;2023-02-01T03:53:09;19.10;;;13.20;;
31782;SDS011;18351;47.560;9.708;2023-02-01T03:55:39;21.58;;;12.80;;
31782;SDS011;18351;47.560;9.708;2023-02-01T03:58:08;18.17;;;12.20;;
31782;SDS011;18351;47.560;9.708;2023-02-01T04:00:35;18.60;;;11.93;;
31782;SDS011;18351;47.560;9.708;2023-02-01T04:03:02;21.80;;;12.13;;
31782;SDS011;18351;47.560;9.708;2023-02-01T04:05:29;20.25;;;12.25;;
31782;SDS011;18351;47.560;9.708;2023-02-01T04:07:55;21.38;;;13.30;;
31782;SDS011;18351;47.560;9.708;2023-02-01T04:10:21;20.23;;;12.60;;
31782;SDS011;18351;47.560;9.708;2023-02-01T04:12:47;21.48;;;12.48;;
31782;SDS011;18351;47.560;9.708;2023-02-01T04:15:12;16.95;;;11.30;;
31782;SDS011;18351;47.560;9.708;2023-02-01T04:17:38;17.67;;;11.63;;
31782;SDS011;18351;47.560;9.708;2023-02-01T04:20:03;17.08;;;11.98;;
31782;SDS011;18351;47.560;9.708;2023-02-01T04:22:29;24.35;;;13.07;;
31782;SDS011;18351;47.560;9.708;2023-02-01T04:24:55;29.60;;;14.77;;
31782;SDS011;18351;47.560;9.708;2023-02-01T04:27:21;19.35;;;12.48;;
31782;SDS011;18351;47.560;9.708;2023-02-01T04:29:46;17.27;;;11.32;;
31782;SDS011;18351;47.560;9.708;2023-02-01T04:32:14;20.15;;;11.27;;
31782;SDS011;18351;47.560;9.708;2023-02-01T04:34:40;18.17;;;11.25;;
31782;SDS011;18351;47.560;9.708;2023-02-01T04:37:06;20.90;;;11.65;;
31782;SDS011;18351;47.560;9.708;2023-02-01T04:39:32;18.33;;;11.43;;
31782;SDS011;18351;47.560;9.708;2023-02-01T04:41:58;18.60;;;11.65;;
31782;SDS011;18351;47.560;9.708;2023-02-01T04:44:23;16.10;;;10.90;;
31782;SDS011;18351;47.560;9.708;2023-02-01T04:46:49;19.60;;;11.52;;
31782;SDS011;18351;47.560;9.708;2023-02-01T04:49:15;20.05;;;11.90;;
31782;SDS011;18351;47.560;9.708;2023-02-01T04:51:40;18.75;;;11.75;;
31782;SDS011;18351;47.560;9.708;2023-02-01T04:54:06;20.55;;;11.43;;
31782;SDS011;18351;47.560;9.708;2023-02-01T04:56:33;21.70;;;12.07;;
31782;SDS011;18351;47.560;9.708;2023-02-01T04:58:59;19.40;;;11.90;;
31782;SDS011;18351;47.560;9.708;2023-02-01T05:01:27;18.90;;;12.25;;
31782;SDS011;18351;47.560;9.708;2023-02-01T05:03:53;17.58;;;11.40;;
31782;SDS011;18351;47.560;9.708;2023-02-01T05:06:19;18.35;;;11.52;;
31782;SDS011;18351;47.560;9.708;2023-02-01T05:08:44;18.35;;;11.80;;
31782;SDS011;18351;47.560;9.708;2023-02-01T05:11:10;19.42;;;11.68;;
31782;SDS011;18351;47.560;9.708;2023-02-01T05:13:55;18.88;;;12.43;;
31782;SDS011;18351;47.560;9.708;2023-02-01T05:16:21;16.90;;;10.95;;
31782;SDS011;18351;47.560;9.708;2023-02-01T05:18:46;18.42;;;11.20;;
31782;SDS011;18351;47.560;9.708;2023-02-01T05:21:12;19.73;;;12.40;;
31782;SDS011;18351;47.560;9.708;2023-02-01T05:23:38;19.38;;;13.18;;
31782;SDS011;18351;47.560;9.708;2023-02-01T05:26:22;18.35;;;11.35;;
31782;SDS011;18351;47.560;9.708;2023-02-01T05:28:48;16.08;;;10.98;;
31782;SDS011;18351;47.560;9.708;2023-02-01T05:31:14;17.15;;;10.85;;
31782;SDS011;18351;47.560;9.708;2023-02-01T05:33:39;14.07;;;10.10;;
31782;SDS011;18351;47.560;9.708;2023-02-01T05:36:05;18.13;;;10.70;;
31782;SDS011;18351;47.560;9.708;2023-02-01T05:38:30;17.35;;;10.98;;
31782;SDS011;18351;47.560;9.708;2023-02-01T05:40:59;15.70;;;10.25;;
31782;SDS011;18351;47.560;9.708;2023-02-01T05:43:26;13.93;;;10.25;;
31782;SDS011;18351;47.560;9.708;2023-02-01T05:45:52;18.75;;;9.52;;
31782;SDS011;18351;47.560;9.708;2023-02-01T05:48:17;18.15;;;10.35;;
31782;SDS011;18351;47.560;9.708;2023-02-01T05:50:44;12.65;;;9.50;;
31782;SDS011;18351;47.560;9.708;2023-02-01T05:53:09;15.15;;;9.85;;
31782;SDS011;18351;47.560;9.708;2023-02-01T05:55:35;15.68;;;9.90;;
31782;SDS011;18351;47.560;9.708;2023-02-01T05:58:01;15.30;;;9.68;;
31782;SDS011;18351;47.560;9.708;2023-02-01T06:00:27;12.55;;;8.90;;
31782;SDS011;18351;47.560;9.708;2023-02-01T06:02:53;15.95;;;9.38;;
31782;SDS011;18351;47.560;9.708;2023-02-01T06:05:18;11.48;;;8.90;;
31782;SDS011;18351;47.560;9.708;2023-02-01T06:07:44;17.88;;;9.43;;
31782;SDS011;18351;47.560;9.708;2023-02-01T06:10:09;16.17;;;9.95;;
31782;SDS011;18351;47.560;9.708;2023-02-01T06:12:35;19.05;;;10.55;;
31782;SDS011;18351;47.560;9.708;2023-02-01T06:15:00;16.67;;;9.93;;
31782;SDS011;18351;47.560;9.708;2023-02-01T06:17:26;17.15;;;9.75;;
31782;SDS011;18351;47.560;9.708;2023-02-01T06:19:52;17.50;;;10.20;;
31782;SDS011;18351;47.560;9.708;2023-02-01T06:22:17;20.75;;;9.52;;
31782;SDS011;18351;47.560;9.708;2023-02-01T06:24:43;14.50;;;9.13;;
31782;SDS011;18351;47.560;9.708;2023-02-01T06:27:08;14.98;;;8.88;;
31782;SDS011;18351;47.560;9.708;2023-02-01T06:29:38;18.33;;;8.13;;
31782;SDS011;18351;47.560;9.708;2023-02-01T06:32:03;13.32;;;8.55;;
31782;SDS011;18351;47.560;9.708;2023-02-01T06:34:29;14.13;;;8.70;;
31782;SDS011;18351;47.560;9.708;2023-02-01T06:36:54;14.18;;;8.52;;
31782;SDS011;18351;47.560;9.708;2023-02-01T06:39:20;16.13;;;8.55;;
31782;SDS011;18351;47.560;9.708;2023-02-01T06:41:49;16.67;;;8.77;;
31782;SDS011;18351;47.560;9.708;2023-02-01T06:44:15;15.25;;;8.52;;
31782;SDS011;18351;47.560;9.708;2023-02-01T06:46:41;16.00;;;9.05;;
31782;SDS011;18351;47.560;9.708;2023-02-01T06:49:07;15.05;;;9.63;;
31782;SDS011;18351;47.560;9.708;2023-02-01T06:51:33;17.35;;;8.93;;
31782;SDS011;18351;47.560;9.708;2023-02-01T06:53:59;13.98;;;8.65;;
31782;SDS011;18351;47.560;9.708;2023-02-01T06:56:25;13.95;;;9.07;;
31782;SDS011;18351;47.560;9.708;2023-02-01T06:58:51;16.40;;;11.18;;
31782;SDS011;18351;47.560;9.708;2023-02-01T07:01:17;13.38;;;8.82;;
31782;SDS011;18351;47.560;9.708;2023-02-01T07:03:46;15.27;;;8.68;;
31782;SDS011;18351;47.560;9.708;2023-02-01T07:06:13;18.23;;;9.50;;
31782;SDS011;18351;47.560;9.708;2023-02-01T07:08:38;11.15;;;7.90;;
31782;SDS011;18351;47.560;9.708;2023-02-01T07:11:08;15.68;;;9.48;;
31782;SDS011;18351;47.560;9.708;2023-02-01T07:13:35;13.73;;;8.88;;
31782;SDS011;18351;47.560;9.708;2023-02-01T07:16:01;13.20;;;9.07;;
31782;SDS011;18351;47.560;9.708;2023-02-01T07:18:28;21.10;;;9.18;;
31782;SDS011;18351;47.560;9.708;2023-02-01T07:20:54;16.50;;;9.30;;
31782;SDS011;18351;47.560;9.708;2023-02-01T07:23:20;13.55;;;8.73;;
31782;SDS011;18351;47.560;9.708;2023-02-01T07:25:46;14.07;;;8.73;;
31782;SDS011;18351;47.560;9.708;2023-02-01T07:28:12;14.30;;;9.00;;
31782;SDS011;18351;47.560;9.708;2023-02-01T07:30:38;18.17;;;9.80;;
31782;SDS011;18351;47.560;9.708;2023-02-01T07:33:04;16.85;;;8.77;;
31782;SDS011;18351;47.560;9.708;2023-02-01T07:35:29;13.82;;;9.18;;
31782;SDS011;18351;47.560;9.708;2023-02-01T07:37:57;12.73;;;8.68;;
31782;SDS011;18351;47.560;9.708;2023-02-01T07:40:23;16.48;;;8.20;;
31782;SDS011;18351;47.560;9.708;2023-02-01T07:42:56;17.30;;;8.77;;
31782;SDS011;18351;47.560;9.708;2023-02-01T07:45:22;16.95;;;9.05;;
31782;SDS011;18351;47.560;9.708;2023-02-01T07:47:48;13.35;;;8.68;;
31782;SDS011;18351;47.560;9.708;2023-02-01T07:50:16;14.25;;;8.90;;
31782;SDS011;18351;47.560;9.708;2023-02-01T07:52:41;15.85;;;8.73;;
31782;SDS011;18351;47.560;9.708;2023-02-01T07:55:07;14.90;;;8.27;;
31782;SDS011;18351;47.560;9.708;2023-02-01T07:57:33;21.55;;;10.07;;
31782;SDS011;18351;47.560;9.708;2023-02-01T07:59:58;15.40;;;8.43;;
31782;SDS011;18351;47.560;9.708;2023-02-01T08:05:08;19.20;;;7.85;;
31782;SDS011;18351;47.560;9.708;2023-02-01T08:07:34;17.38;;;8.93;;
31782;SDS011;18351;47.560;9.708;2023-02-01T08:09:59;15.43;;;8.52;;
31782;SDS011;18351;47.560;9.708;2023-02-01T08:12:25;14.45;;;8.30;;
31782;SDS011;18351;47.560;9.708;2023-02-01T08:14:52;13.80;;;8.98;;
31782;SDS011;18351;47.560;9.708;2023-02-01T08:17:19;12.77;;;8.00;;
31782;SDS011;18351;47.560;9.708;2023-02-01T08:19:45;15.05;;;8.95;;
31782;SDS011;18351;47.560;9.708;2023-02-01T08:22:11;12.48;;;8.35;;
31782;SDS011;18351;47.560;9.708;2023-02-01T08:24:36;14.38;;;8.73;;
31782;SDS011;18351;47.560;9.708;2023-02-01T08:27:05;18.73;;;8.63;;
31782;SDS011;18351;47.560;9.708;2023-02-01T08:29:30;19.55;;;9.88;;
31782;SDS011;18351;47.560;9.708;2023-02-01T08:31:56;17.17;;;10.05;;
31782;SDS011;18351;47.560;9.708;2023-02-01T08:34:22;13.07;;;8.25;;
31782;SDS011;18351;47.560;9.708;2023-02-01T08:36:47;12.07;;;8.48;;
31782;SDS011;18351;47.560;9.708;2023-02-01T08:39:13;16.80;;;8.77;;
31782;SDS011;18351;47.560;9.708;2023-02-01T08:41:39;11.98;;;8.55;;
31782;SDS011;18351;47.560;9.708;2023-02-01T08:44:07;14.00;;;7.68;;
31782;SDS011;18351;47.560;9.708;2023-02-01T08:46:32;12.95;;;7.35;;
31782;SDS011;18351;47.560;9.708;2023-02-01T08:48:58;10.27;;;7.80;;
31782;SDS011;18351;47.560;9.708;2023-02-01T08:51:24;17.08;;;7.60;;
31782;SDS011;18351;47.560;9.708;2023-02-01T08:53:51;16.13;;;8.38;;
31782;SDS011;18351;47.560;9.708;2023-02-01T08:56:17;18.17;;;8.02;;
31782;SDS011;18351;47.560;9.708;2023-02-01T08:58:43;18.20;;;7.78;;
31782;SDS011;18351;47.560;9.708;2023-02-01T09:01:10;14.13;;;8.48;;
31782;SDS011;18351;47.560;9.708;2023-02-01T09:03:38;23.92;;;8.98;;
31782;SDS011;18351;47.560;9.708;2023-02-01T09:06:05;11.68;;;8.18;;
31782;SDS011;18351;47.560;9.708;2023-02-01T09:08:33;13.43;;;8.30;;
31782;SDS011;18351;47.560;9.708;2023-02-01T09:11:04;14.63;;;7.53;;
31782;SDS011;18351;47.560;9.708;2023-02-01T09:13:31;15.27;;;7.93;;
31782;SDS011;18351;47.560;9.708;2023-02-01T09:15:58;14.98;;;8.15;;
31782;SDS011;18351;47.560;9.708;2023-02-01T09:18:24;14.65;;;7.93;;
31782;SDS011;18351;47.560;9.708;2023-02-01T09:20:50;15.00;;;8.30;;
31782;SDS011;18351;47.560;9.708;2023-02-01T09:23:16;12.13;;;7.88;;
31782;SDS011;18351;47.560;9.708;2023-02-01T09:25:42;17.42;;;7.43;;
31782;SDS011;18351;47.560;9.708;2023-02-01T09:28:07;12.50;;;8.52;;
31782;SDS011;18351;47.560;9.708;2023-02-01T09:30:34;12.52;;;7.35;;
31782;SDS011;18351;47.560;9.708;2023-02-01T09:33:01;17.98;;;9.60;;
31782;SDS011;18351;47.560;9.708;2023-02-01T09:35:26;12.35;;;6.32;;
31782;SDS011;18351;47.560;9.708;2023-02-01T09:37:52;9.55;;;6.13;;
31782;SDS011;18351;47.560;9.708;2023-02-01T09:40:18;10.48;;;6.22;;
31782;SDS011;18351;47.560;9.708;2023-02-01T09:43:09;34.75;;;10.10;;
31782;SDS011;18351;47.560;9.708;2023-02-01T09:48:52;8.10;;;5.25;;
31782;SDS011;18351;47.560;9.708;2023-02-01T09:51:23;7.38;;;5.03;;
31782;SDS011;18351;47.560;9.708;2023-02-01T09:54:02;6.78;;;4.40;;
31782;SDS011;18351;47.560;9.708;2023-02-01T09:56:41;6.63;;;4.60;;
31782;SDS011;18351;47.560;9.708;2023-02-01T10:01:48;6.00;;;4.53;;
31782;SDS011;18351;47.560;9.708;2023-02-01T10:04:14;5.85;;;4.63;;
31782;SDS011;18351;47.560;9.708;2023-02-01T10:09:23;6.53;;;3.70;;
31782;SDS011;18351;47.560;9.708;2023-02-01T10:12:00;7.13;;;4.63;;
31782;SDS011;18351;47.560;9.708;2023-02-01T10:14:51;5.63;;;4.03;;
31782;SDS011;18351;47.560;9.708;2023-02-01T10:17:27;6.90;;;4.45;;
31782;SDS011;18351;47.560;9.708;2023-02-01T10:20:07;6.88;;;5.07;;
31782;SDS011;18351;47.560;9.708;2023-02-01T10:26:05;7.70;;;4.45;;
31782;SDS011;18351;47.560;9.708;2023-02-01T10:28:42;7.93;;;4.70;;
31782;SDS011;18351;47.560;9.708;2023-02-01T10:31:10;6.28;;;4.60;;
31782;SDS011;18351;47.560;9.708;2023-02-01T10:33:41;7.93;;;4.93;;
31782;SDS011;18351;47.560;9.708;2023-02-01T10:36:16;7.22;;;5.13;;
31782;SDS011;18351;47.560;9.708;2023-02-01T10:38:48;8.23;;;5.40;;
31782;SDS011;18351;47.560;9.708;2023-02-01T10:41:18;6.93;;;4.85;;
31782;SDS011;18351;47.560;9.708;2023-02-01T10:43:48;7.70;;;4.82;;
31782;SDS011;18351;47.560;9.708;2023-02-01T10:46:18;9.07;;;4.90;;
31782;SDS011;18351;47.560;9.708;2023-02-01T10:48:43;6.93;;;4.50;;
31782;SDS011;18351;47.560;9.708;2023-02-01T10:51:21;7.35;;;4.32;;
31782;SDS011;18351;47.560;9.708;2023-02-01T10:54:10;7.22;;;4.97;;
31782;SDS011;18351;47.560;9.708;2023-02-01T10:56:41;11.18;;;5.60;;
31782;SDS011;18351;47.560;9.708;2023-02-01T10:59:14;10.35;;;5.25;;
31782;SDS011;18351;47.560;9.708;2023-02-01T11:01:43;12.38;;;5.70;;
31782;SDS011;18351;47.560;9.708;2023-02-01T11:04:15;6.68;;;5.10;;
31782;SDS011;18351;47.560;9.708;2023-02-01T11:06:44;12.02;;;6.55;;
31782;SDS011;18351;47.560;9.708;2023-02-01T11:09:40;11.25;;;6.50;;
31782;SDS011;18351;47.560;9.708;2023-02-01T11:12:20;11.25;;;5.95;;
31782;SDS011;18351;47.560;9.708;2023-02-01T11:14:50;19.20;;;6.28;;
31782;SDS011;18351;47.560;9.708;2023-02-01T11:19:55;9.38;;;6.20;;
31782;SDS011;18351;47.560;9.708;2023-02-01T11:22:26;11.55;;;6.35;;
31782;SDS011;18351;47.560;9.708;2023-02-01T11:24:54;9.50;;;5.82;;
31782;SDS011;18351;47.560;9.708;2023-02-01T11:27:20;10.82;;;5.50;;
31782;SDS011;18351;47.560;9.708;2023-02-01T11:29:51;11.05;;;5.38;;
31782;SDS011;18351;47.560;9.708;2023-02-01T11:32:21;10.83;;;6.00;;
31782;SDS011;18351;47.560;9.708;2023-02-01T11:34:57;11.27;;;4.97;;
31782;SDS011;18351;47.560;9.708;2023-02-01T11:37:28;9.02;;;4.60;;
31782;SDS011;18351;47.560;9.708;2023-02-01T11:40:00;8.50;;;4.07;;
31782;SDS011;18351;47.560;9.708;2023-02-01T11:42:28;7.07;;;4.20;;
31782;SDS011;18351;47.560;9.708;2023-02-01T11:47:43;7.38;;;4.82;;
31782;SDS011;18351;47.560;9.708;2023-02-01T11:50:45;10.35;;;6.07;;
31782;SDS011;18351;47.560;9.708;2023-02-01T11:53:31;9.20;;;4.95;;
31782;SDS011;18351;47.560;9.708;2023-02-01T12:03:50;10.23;;;4.13;;
31782;SDS011;18351;47.560;9.708;2023-02-01T12:06:55;7.18;;;3.45;;
31782;SDS011;18351;47.560;9.708;2023-02-01T12:09:47;6.38;;;3.55;;
31782;SDS011;18351;47.560;9.708;2023-02-01T12:12:38;3.45;;;3.00;;
31782;SDS011;18351;47.560;9.708;2023-02-01T12:18:38;8.10;;;3.83;;
31782;SDS011;18351;47.560;9.708;2023-02-01T12:26:56;5.45;;;4.38;;
31782;SDS011;18351;47.560;9.708;2023-02-01T12:32:25;8.05;;;3.75;;
31782;SDS011;18351;47.560;9.708;2023-02-01T12:37:47;7.13;;;3.92;;
31782;SDS011;18351;47.560;9.708;2023-02-01T12:40:51;6.90;;;3.88;;
31782;SDS011;18351;47.560;9.708;2023-02-01T12:46:07;7.03;;;4.18;;
31782;SDS011;18351;47.560;9.708;2023-02-01T12:48:54;8.07;;;4.78;;
31782;SDS011;18351;47.560;9.708;2023-02-01T12:51:33;6.18;;;4.18;;
31782;SDS011;18351;47.560;9.708;2023-02-01T12:54:12;5.70;;;3.97;;
31782;SDS011;18351;47.560;9.708;2023-02-01T12:57:02;7.28;;;3.72;;
31782;SDS011;18351;47.560;9.708;2023-02-01T13:02:54;9.77;;;4.15;;
31782;SDS011;18351;47.560;9.708;2023-02-01T13:05:48;7.50;;;3.70;;
31782;SDS011;18351;47.560;9.708;2023-02-01T13:08:36;22.70;;;5.65;;
31782;SDS011;18351;47.560;9.708;2023-02-01T13:11:04;8.68;;;5.00;;
31782;SDS011;18351;47.560;9.708;2023-02-01T13:13:51;9.23;;;4.95;;
31782;SDS011;18351;47.560;9.708;2023-02-01T13:16:25;7.90;;;4.65;;
31782;SDS011;18351;47.560;9.708;2023-02-01T13:21:46;10.07;;;3.85;;
31782;SDS011;18351;47.560;9.708;2023-02-01T13:26:49;6.93;;;4.00;;
31782;SDS011;18351;47.560;9.708;2023-02-01T13:29:21;6.75;;;3.70;;
31782;SDS011;18351;47.560;9.708;2023-02-01T13:32:09;5.78;;;2.95;;
31782;SDS011;18351;47.560;9.708;2023-02-01T13:34:54;5.60;;;3.40;;
31782;SDS011;18351;47.560;9.708;2023-02-01T13:43:24;3.30;;;3.00;;
31782;SDS011;18351;47.560;9.708;2023-02-01T13:45:54;9.50;;;3.67;;
31782;SDS011;18351;47.560;9.708;2023-02-01T13:48:29;7.18;;;3.95;;
31782;SDS011;18351;47.560;9.708;2023-02-01T13:51:05;5.25;;;3.88;;
31782;SDS011;18351;47.560;9.708;2023-02-01T13:53:32;9.95;;;4.45;;
31782;SDS011;18351;47.560;9.708;2023-02-01T13:56:12;6.63;;;3.42;;
31782;SDS011;18351;47.560;9.708;2023-02-01T13:58:44;10.23;;;5.30;;
31782;SDS011;18351;47.560;9.708;2023-02-01T14:15:27;10.70;;;4.10;;
31782;SDS011;18351;47.560;9.708;2023-02-01T14:17:52;7.55;;;3.90;;
31782;SDS011;18351;47.560;9.708;2023-02-01T14:23:12;6.03;;;4.00;;
31782;SDS011;18351;47.560;9.708;2023-02-01T14:25:44;11.23;;;5.90;;
31782;SDS011;18351;47.560;9.708;2023-02-01T14:28:11;12.98;;;6.85;;
31782;SDS011;18351;47.560;9.708;2023-02-01T14:30:48;9.90;;;5.65;;
31782;SDS011;18351;47.560;9.708;2023-02-01T14:33:26;18.00;;;6.20;;
31782;SDS011;18351;47.560;9.708;2023-02-01T14:36:04;9.40;;;5.97;;
31782;SDS011;18351;47.560;9.708;2023-02-01T14:38:36;19.30;;;6.25;;
31782;SDS011;18351;47.560;9.708;2023-02-01T14:41:23;17.00;;;5.50;;
31782;SDS011;18351;47.560;9.708;2023-02-01T14:49:47;7.47;;;4.20;;
31782;SDS011;18351;47.560;9.708;2023-02-01T14:52:33;10.75;;;4.65;;
31782;SDS011;18351;47.560;9.708;2023-02-01T14:55:04;10.60;;;4.18;;
31782;SDS011;18351;47.560;9.708;2023-02-01T14:57:35;13.77;;;4.63;;
31782;SDS011;18351;47.560;9.708;2023-02-01T15:00:06;13.13;;;3.95;;
31782;SDS011;18351;47.560;9.708;2023-02-01T15:02:43;10.48;;;4.50;;
31782;SDS011;18351;47.560;9.708;2023-02-01T15:05:24;13.05;;;4.60;;
31782;SDS011;18351;47.560;9.708;2023-02-01T15:07:51;11.00;;;4.53;;
31782;SDS011;18351;47.560;9.708;2023-02-01T15:10:17;12.75;;;3.97;;
31782;SDS011;18351;47.560;9.708;2023-02-01T15:12:45;11.32;;;5.13;;
31782;SDS011;18351;47.560;9.708;2023-02-01T15:17:50;10.73;;;4.47;;
31782;SDS011;18351;47.560;9.708;2023-02-01T15:20:26;12.63;;;3.97;;
31782;SDS011;18351;47.560;9.708;2023-02-01T15:23:00;11.55;;;4.57;;
31782;SDS011;18351;47.560;9.708;2023-02-01T15:25:27;10.55;;;4.72;;
31782;SDS011;18351;47.560;9.708;2023-02-01T15:27:59;10.57;;;4.50;;
31782;SDS011;18351;47.560;9.708;2023-02-01T15:30:29;10.80;;;5.35;;
31782;SDS011;18351;47.560;9.708;2023-02-01T15:33:14;9.50;;;4.90;;
31782;SDS011;18351;47.560;9.708;2023-02-01T15:35:42;7.13;;;4.22;;
31782;SDS011;18351;47.560;9.708;2023-02-01T15:43:24;12.43;;;4.30;;
31782;SDS011;18351;47.560;9.708;2023-02-01T15:45:50;15.63;;;4.30;;
31782;SDS011;18351;47.560;9.708;2023-02-01T15:48:20;11.27;;;3.80;;
31782;SDS011;18351;47.560;9.708;2023-02-01T15:50:49;10.60;;;3.63;;
31782;SDS011;18351;47.560;9.708;2023-02-01T15:53:19;8.63;;;4.05;;
31782;SDS011;18351;47.560;9.708;2023-02-01T15:55:51;12.52;;;4.93;;
31782;SDS011;18351;47.560;9.708;2023-02-01T15:58:20;15.88;;;4.97;;
31782;SDS011;18351;47.560;9.708;2023-02-01T16:00:52;10.75;;;4.88;;
31782;SDS011;18351;47.560;9.708;2023-02-01T16:06:08;13.98;;;4.93;;
31782;SDS011;18351;47.560;9.708;2023-02-01T16:08:34;19.13;;;6.40;;
31782;SDS011;18351;47.560;9.708;2023-02-01T16:11:48;12.68;;;5.18;;
31782;SDS011;18351;47.560;9.708;2023-02-01T16:13:50;13.32;;;4.35;;
31782;SDS011;18351;47.560;9.708;2023-02-01T16:16:15;13.05;;;4.38;;
31782;SDS011;18351;47.560;9.708;2023-02-01T16:18:41;14.93;;;4.13;;
31782;SDS011;18351;47.560;9.708;2023-02-01T16:21:07;12.98;;;4.53;;
31782;SDS011;18351;47.560;9.708;2023-02-01T16:23:33;13.90;;;5.38;;
31782;SDS011;18351;47.560;9.708;2023-02-01T16:26:02;16.23;;;6.55;;
31782;SDS011;18351;47.560;9.708;2023-02-01T16:28:28;14.90;;;5.68;;
31782;SDS011;18351;47.560;9.708;2023-02-01T16:30:54;11.27;;;4.90;;
31782;SDS011;18351;47.560;9.708;2023-02-01T16:33:20;10.65;;;4.82;;
31782;SDS011;18351;47.560;9.708;2023-02-01T16:35:47;14.38;;;5.00;;
31782;SDS011;18351;47.560;9.708;2023-02-01T16:38:14;11.80;;;5.30;;
31782;SDS011;18351;47.560;9.708;2023-02-01T16:40:43;16.73;;;5.18;;
31782;SDS011;18351;47.560;9.708;2023-02-01T16:43:14;12.85;;;5.70;;
31782;SDS011;18351;47.560;9.708;2023-02-01T16:45:44;16.15;;;5.63;;
31782;SDS011;18351;47.560;9.708;2023-02-01T16:48:16;9.25;;;5.00;;
31782;SDS011;18351;47.560;9.708;2023-02-01T16:50:43;15.52;;;4.63;;
31782;SDS011;18351;47.560;9.708;2023-02-01T16:53:11;11.93;;;5.10;;